Time;durP1;ratioP1;P1;durP2;ratioP2;P2;SDS_P1;SDS_P2;PMS_P1;PMS_P2;Temp;Humidity;BMP_temperature;BMP_pressure;BME280_temperature;BME280_humidity;BME280_pressure;Samples;Min_cycle;Max_cycle;Signal;HPM_P1;HPM_P2
2021/01/26 00:01:14;;;;;;;32.93;15.70;;;;;;;6.62;81.02;97849.02;1610019;87;21113;-94
2021/01/26 00:04:04;;;;;;;38.30;17.07;;;;;;;6.50;81.17;97841.55;1564480;89;21635;-94
2021/01/26 00:06:32;;;;;;;19.13;12.03;;;;;;;6.54;81.21;97838.75;1595238;88;21294;-89
2021/01/26 00:08:59;;;;;;;25.03;13.57;;;;;;;6.57;80.75;97833.02;1579900;88;21230;-86
2021/01/26 00:11:26;;;;;;;20.33;14.23;;;;;;;6.50;80.80;97838.08;1623090;86;21176;-85
2021/01/26 00:13:53;;;;;;;30.17;14.00;;;;;;;6.51;80.86;97828.59;1622258;87;21361;-87
2021/01/26 00:16:20;;;;;;;22.07;13.67;;;;;;;6.56;80.62;97823.45;1581012;89;21685;-84
2021/01/26 00:18:47;;;;;;;23.40;12.40;;;;;;;6.55;80.46;97828.95;1622371;87;21196;-85
2021/01/26 00:21:14;;;;;;;18.03;10.93;;;;;;;6.44;80.51;97843.74;1639134;86;21394;-84
2021/01/26 00:23:41;;;;;;;;;;;;;;;6.50;80.56;97828.81;1627142;84;21185;-87
2021/01/26 00:26:08;;;;;;;27.95;14.28;;;;;;;6.52;80.35;97812.22;1624313;87;20203;-87
2021/01/26 00:28:35;;;;;;;28.20;14.83;;;;;;;6.39;80.86;97821.93;1618522;87;21254;-85
2021/01/26 00:31:03;;;;;;;26.23;11.67;;;;;;;6.34;81.08;97803.27;1616981;87;21429;-90
2021/01/26 00:33:32;;;;;;;23.17;12.77;;;;;;;6.41;80.77;97796.05;1648298;85;21081;-93
2021/01/26 00:36:05;;;;;;;30.40;17.03;;;;;;;6.46;80.77;97823.19;1621516;86;21206;-93
2021/01/26 00:38:32;;;;;;;28.70;14.03;;;;;;;6.35;80.67;97824.73;1622348;86;21207;-93
2021/01/26 00:41:03;;;;;;;26.03;14.53;;;;;;;6.34;81.00;97807.23;1618473;85;21183;-93
2021/01/26 00:43:41;;;;;;;48.83;19.33;;;;;;;6.39;80.81;97816.64;1622984;83;21203;-91
2021/01/26 00:46:14;;;;;;;40.57;19.23;;;;;;;6.45;80.65;97789.00;1580049;87;21629;-94
2021/01/26 00:48:46;;;;;;;40.80;17.70;;;;;;;6.37;80.99;97804.15;1601474;88;21240;-91
2021/01/26 00:51:14;;;;;;;32.40;15.60;;;;;;;6.34;81.30;97804.59;1611844;87;21245;-92
2021/01/26 00:53:42;;;;;;;44.77;20.87;;;;;;;6.43;81.06;97784.73;1589051;89;21295;-91
2021/01/26 00:56:13;;;;;;;45.80;17.53;;;;;;;6.38;80.96;97787.23;1639069;85;21130;-93
2021/01/26 00:58:44;;;;;;;37.53;16.40;;;;;;;6.36;81.14;97769.97;1633181;86;21181;-91
2021/01/26 01:01:13;;;;;;;34.60;15.10;;;;;;;6.39;80.92;97790.70;1660024;85;21722;-85
2021/01/26 01:03:41;;;;;;;41.77;17.17;;;;;;;6.42;80.88;97769.06;1610297;85;21231;-85
2021/01/26 01:06:08;;;;;;;37.47;17.17;;;;;;;6.40;81.06;97781.72;1649596;85;21323;-85
2021/01/26 01:08:35;;;;;;;38.63;16.10;;;;;;;6.36;81.23;97794.58;1643268;85;21180;-85
2021/01/26 01:11:02;;;;;;;23.20;12.00;;;;;;;6.32;81.51;97772.26;1649744;85;21208;-85
2021/01/26 01:13:29;;;;;;;60.17;21.50;;;;;;;6.36;81.32;97780.56;1654730;85;21366;-84
2021/01/26 01:15:56;;;;;;;58.47;20.67;;;;;;;6.40;81.29;97800.23;1645232;85;21679;-85
2021/01/26 01:18:23;;;;;;;33.93;14.37;;;;;;;6.35;81.27;97768.37;1638121;85;21366;-84
2021/01/26 01:20:52;;;;;;;17.97;8.87;;;;;;;6.27;81.65;97784.53;1628274;86;21146;-85
2021/01/26 01:23:19;;;;;;;7.03;6.23;;;;;;;6.27;81.64;97761.53;1649721;85;21738;-84
2021/01/26 01:25:46;;;;;;;;;;;;;;;6.21;81.61;97765.08;1594811;87;21687;-85
2021/01/26 01:28:13;;;;;;;5.30;4.80;;;;;;;6.16;81.69;97772.86;1604607;88;20200;-83
2021/01/26 01:30:41;;;;;;;5.20;4.80;;;;;;;6.13;82.03;97773.33;1609806;86;21184;-84
2021/01/26 01:33:08;;;;;;;5.13;4.70;;;;;;;6.10;82.18;97786.98;1621823;86;21374;-87
2021/01/26 01:35:36;;;;;;;5.97;5.47;;;;;;;6.10;82.35;97777.20;1601035;87;21202;-83
2021/01/26 01:38:03;;;;;;;5.13;4.63;;;;;;;6.17;82.20;97785.88;1572022;89;21275;-86
2021/01/26 01:40:33;;;;;;;1.50;1.40;;;;;;;6.08;81.23;97791.69;1554542;90;21269;-87
2021/01/26 01:43:00;;;;;;;1.30;0.60;;;;;;;5.90;79.54;97808.35;1579220;88;21406;-88
2021/01/26 01:45:27;;;;;;;0.83;0.30;;;;;;;5.80;78.71;97815.44;1576707;90;21148;-85
2021/01/26 01:48:15;;;;;;;0.30;0.20;;;;;;;5.66;78.22;97824.83;1599710;87;21346;-86
2021/01/26 01:50:53;;;;;;;0.55;0.20;;;;;;;5.43;77.95;97837.34;1610888;87;21241;-88
2021/01/26 01:53:26;;;;;;;0.13;0.13;;;;;;;5.13;77.89;97845.09;1578379;88;21201;-87
2021/01/26 01:55:56;;;;;;;0.73;0.30;;;;;;;4.92;77.58;97865.26;1569970;89;21088;-88
2021/01/26 01:58:29;;;;;;;0.73;0.20;;;;;;;4.79;76.90;97884.09;1604578;87;21251;-87
2021/01/26 02:01:10;;;;;;;0.60;0.60;;;;;;;4.56;75.42;97879.83;1602307;88;21934;-88
2021/01/26 02:03:41;;;;;;;0.73;0.50;;;;;;;4.27;75.60;97885.41;1605923;87;21184;-87
2021/01/26 02:06:09;;;;;;;0.90;0.90;;;;;;;4.00;75.76;97903.65;1637404;86;21205;-88
2021/01/26 02:08:44;;;;;;;0.83;0.77;;;;;;;3.83;76.35;97903.27;1597507;88;21797;-88
2021/01/26 02:11:11;;;;;;;0.80;0.70;;;;;;;3.78;75.83;97917.55;1619190;86;21227;-85
2021/01/26 02:13:39;;;;;;;0.50;0.50;;;;;;;3.81;75.63;97922.42;1614360;87;21208;-86
2021/01/26 02:16:53;;;;;;;0.90;0.70;;;;;;;3.65;75.00;97928.91;1785734;79;28528;-86
2021/01/26 02:19:51;;;;;;;0.67;0.67;;;;;;;3.66;75.16;97939.24;1776468;80;21184;-91
2021/01/26 02:23:04;;;;;;;0.80;0.80;;;;;;;3.65;74.81;97951.30;1770157;80;21172;-90
2021/01/26 02:25:57;;;;;;;0.80;0.43;;;;;;;3.49;75.37;97959.09;1710998;83;21186;-94
2021/01/26 02:28:57;;;;;;;1.33;0.80;;;;;;;3.50;75.08;97968.60;1693250;84;21311;-91
2021/01/26 02:32:02;;;;;;;0.83;0.60;;;;;;;3.34;75.48;97982.17;1701595;83;21796;-93
2021/01/26 02:35:00;;;;;;;0.37;0.37;;;;;;;3.13;75.61;98001.05;1661527;84;21471;-91
2021/01/26 02:38:00;;;;;;;0.97;0.70;;;;;;;2.88;75.96;98024.41;1674753;84;21360;-89
2021/01/26 02:40:47;;;;;;;1.43;0.93;;;;;;;2.89;76.41;98031.31;1697238;84;21192;-92
2021/01/26 02:43:43;;;;;;;0.47;0.47;;;;;;;2.71;76.68;98034.45;1697402;84;21306;-93
2021/01/26 02:46:45;;;;;;;1.10;1.00;;;;;;;2.56;77.44;98035.08;1792704;78;23915;-91
2021/01/26 02:49:41;;;;;;;0.63;0.43;;;;;;;2.48;77.71;98039.98;1788519;78;21159;-92
2021/01/26 02:52:36;;;;;;;0.50;0.50;;;;;;;2.53;77.28;98050.23;1792382;79;21592;-90
2021/01/26 02:55:11;;;;;;;0.43;0.43;;;;;;;2.43;77.59;98066.03;1787341;77;21657;-91
2021/01/26 02:58:00;;;;;;;0.70;0.50;;;;;;;2.26;78.18;98066.34;1741220;81;21126;-93
2021/01/26 03:01:18;;;;;;;0.50;0.50;;;;;;;2.21;78.22;98070.55;1759581;78;21060;-94
2021/01/26 03:08:51;;;;;;;2.20;1.27;;;;;;;2.05;77.84;98075.55;1703750;83;21458;-92
2021/01/26 03:11:42;;;;;;;1.00;1.00;;;;;;;2.01;78.04;98090.88;1724211;80;21156;-91
2021/01/26 03:14:18;;;;;;;3.33;1.73;;;;;;;2.13;77.71;98078.87;1716377;82;21680;-93
2021/01/26 03:16:52;;;;;;;3.13;2.83;;;;;;;2.09;77.57;98084.67;1729361;80;21121;-88
2021/01/26 03:19:25;;;;;;;2.97;2.77;;;;;;;2.00;77.82;98087.95;1728044;80;21184;-82
2021/01/26 03:21:56;;;;;;;3.20;2.90;;;;;;;1.92;77.85;98100.72;1732948;80;21162;-86
2021/01/26 03:24:29;;;;;;;3.53;3.33;;;;;;;1.95;77.76;98084.56;1734824;79;21067;-94
2021/01/26 03:26:57;;;;;;;6.53;4.00;;;;;;;2.07;77.36;98091.94;1729146;80;21152;-91
2021/01/26 03:29:30;;;;;;;4.23;3.53;;;;;;;2.08;77.24;98104.09;1730390;80;21141;-90
2021/01/26 03:32:00;;;;;;;4.10;3.73;;;;;;;2.04;77.56;98104.96;1734208;80;21209;-93
2021/01/26 03:34:29;;;;;;;6.23;5.00;;;;;;;2.00;77.26;98097.63;1693772;80;21145;-92
2021/01/26 03:37:00;;;;;;;7.33;4.20;;;;;;;2.10;76.92;98098.14;1732795;81;21142;-92
2021/01/26 03:39:27;;;;;;;5.93;5.33;;;;;;;2.14;76.13;98105.45;1724797;81;21234;-91
2021/01/26 03:41:56;;;;;;;5.23;4.73;;;;;;;2.12;76.25;98119.78;1720251;82;21173;-91
2021/01/26 03:44:23;;;;;;;5.30;4.77;;;;;;;2.13;76.35;98113.03;1715650;81;21228;-90
2021/01/26 03:47:11;;;;;;;6.27;5.67;;;;;;;2.14;75.82;98110.70;1662878;84;21184;-90
2021/01/26 03:50:14;;;;;;;6.08;5.55;;;;;;;2.25;75.46;98119.09;1623031;86;21219;-90
2021/01/26 03:53:28;;;;;;;7.33;6.47;;;;;;;1.90;74.91;98055.44;1659704;84;21197;-85
2021/01/26 03:56:24;;;;;;;6.37;5.73;;;;;;;2.23;75.04;98124.54;1651724;84;21096;-86
2021/01/26 03:59:16;;;;;;;6.57;5.97;;;;;;;2.17;75.10;98129.24;1579019;89;21297;-84
2021/01/26 04:01:57;;;;;;;8.03;6.97;;;;;;;2.12;74.67;98134.24;1572394;88;21850;-87
2021/01/26 04:04:46;;;;;;;7.23;6.23;;;;;;;2.26;74.15;98133.37;1585023;87;21215;-85
2021/01/26 04:07:28;;;;;;;7.93;7.13;;;;;;;2.26;74.06;98125.96;1618770;87;21230;-87
2021/01/26 04:10:06;;;;;;;9.93;8.93;;;;;;;2.17;73.89;98142.86;1621347;87;21235;-85
2021/01/26 04:12:36;;;;;;;8.23;7.17;;;;;;;2.09;74.09;98148.58;1625143;85;21133;-87
2021/01/26 04:15:23;;;;;;;8.53;6.63;;;;;;;2.04;73.92;98143.06;1636502;85;21357;-88
2021/01/26 04:17:52;;;;;;;9.28;8.30;;;;;;;2.14;73.76;98161.14;1636784;85;21190;-88
2021/01/26 04:20:23;;;;;;;8.97;7.60;;;;;;;2.18;73.85;98161.59;1585709;88;21188;-87
2021/01/26 04:22:55;;;;;;;9.30;8.37;;;;;;;2.12;73.47;98169.72;1562564;87;21280;-87
2021/01/26 04:25:36;;;;;;;8.93;8.00;;;;;;;2.04;73.04;98173.80;1611005;87;21218;-87
2021/01/26 04:28:10;;;;;;;11.13;8.17;;;;;;;2.00;73.49;98166.78;1645458;86;21182;-89
2021/01/26 04:30:38;;;;;;;11.50;9.40;;;;;;;2.10;73.04;98188.30;1615015;87;21994;-88
2021/01/26 04:33:08;;;;;;;11.33;9.13;;;;;;;2.12;73.13;98181.04;1644945;86;21443;-89
2021/01/26 04:35:36;;;;;;;10.17;8.77;;;;;;;2.06;73.23;98188.36;1641751;86;21280;-87
2021/01/26 04:38:03;;;;;;;12.73;9.67;;;;;;;1.95;73.40;98181.77;1642921;86;22483;-85
2021/01/26 04:40:31;;;;;;;9.43;8.43;;;;;;;1.98;73.60;98189.80;1642895;86;21231;-87
2021/01/26 04:43:42;;;;;;;10.43;8.37;;;;;;;2.11;73.28;98195.67;1643580;86;21760;-88
2021/01/26 04:46:18;;;;;;;10.53;9.43;;;;;;;2.10;73.05;98196.19;1662716;84;21606;-85
2021/01/26 04:49:13;;;;;;;11.30;10.07;;;;;;;1.97;73.12;98197.87;1671777;84;21356;-86
2021/01/26 04:51:58;;;;;;;11.93;9.73;;;;;;;1.88;73.16;98221.61;1668314;84;21650;-87
2021/01/26 04:55:00;;;;;;;10.43;8.80;;;;;;;1.94;73.16;98220.89;1676162;85;21184;-87
2021/01/26 04:58:00;;;;;;;11.57;8.80;;;;;;;2.06;72.35;98230.41;1668185;84;21768;-84
2021/01/26 05:00:36;;;;;;;10.90;9.77;;;;;;;1.99;72.15;98228.20;1672168;84;21064;-85
2021/01/26 05:03:24;;;;;;;10.30;8.33;;;;;;;1.95;72.27;98242.20;1672222;85;21481;-85
2021/01/26 05:05:56;;;;;;;10.03;8.07;;;;;;;1.93;71.54;98239.45;1641605;86;21203;-84
2021/01/26 05:08:38;;;;;;;11.30;8.60;;;;;;;2.02;71.16;98250.69;1649248;86;21997;-84
2021/01/26 05:11:12;;;;;;;10.43;7.80;;;;;;;2.10;70.68;98252.69;1673540;82;21136;-85
2021/01/26 05:13:46;;;;;;;9.67;8.53;;;;;;;2.03;70.40;98257.05;1675731;83;21679;-85
2021/01/26 05:16:28;;;;;;;10.67;8.03;;;;;;;1.99;70.63;98257.11;1682951;84;21160;-86
2021/01/26 05:19:14;;;;;;;8.77;7.47;;;;;;;1.96;70.21;98256.18;1665711;84;21191;-85
2021/01/26 05:21:49;;;;;;;7.60;6.80;;;;;;;2.07;70.04;98266.70;1672921;84;21510;-87
2021/01/26 05:24:40;;;;;;;8.77;7.17;;;;;;;2.16;69.44;98273.48;1656500;84;21417;-87
2021/01/26 05:27:08;;;;;;;8.67;7.57;;;;;;;2.10;69.26;98273.71;1672755;84;21363;-87
2021/01/26 05:29:36;;;;;;;9.83;7.73;;;;;;;2.06;69.32;98275.09;1699570;84;21187;-86
2021/01/26 05:32:06;;;;;;;;;;;;;;;2.03;68.91;98289.89;1702122;83;21132;-86
2021/01/26 05:34:35;;;;;;;9.43;7.77;;;;;;;2.03;68.91;98292.52;1681103;81;20175;-86
2021/01/26 05:37:08;;;;;;;8.10;7.30;;;;;;;1.97;69.21;98301.15;1685618;83;21314;-84
2021/01/26 05:40:08;;;;;;;11.10;7.33;;;;;;;1.99;69.25;98299.66;1685256;83;21236;-85
2021/01/26 05:42:35;;;;;;;8.07;7.00;;;;;;;1.98;69.11;98309.84;1583799;89;21263;-86
2021/01/26 05:45:42;;;;;;;7.07;6.13;;;;;;;2.18;68.80;98310.09;1769151;78;23005;-87
2021/01/26 05:48:18;;;;;;;7.97;7.17;;;;;;;2.17;68.43;98316.34;1729999;81;21183;-88
2021/01/26 05:50:48;;;;;;;9.60;7.77;;;;;;;2.10;68.27;98312.33;1668440;85;21238;-87
2021/01/26 05:53:29;;;;;;;9.90;7.20;;;;;;;2.08;68.42;98321.70;1670073;84;21369;-88
2021/01/26 05:56:11;;;;;;;10.13;7.90;;;;;;;2.07;68.51;98314.84;1657044;84;21698;-87
2021/01/26 05:58:44;;;;;;;8.37;7.07;;;;;;;2.11;68.12;98321.83;1667773;84;21165;-85
2021/01/26 06:01:14;;;;;;;7.20;6.13;;;;;;;2.10;68.09;98310.51;1673548;84;21671;-84
2021/01/26 06:03:44;;;;;;;6.70;6.00;;;;;;;2.10;67.50;98335.48;1640000;84;21377;-89
2021/01/26 06:06:14;;;;;;;8.47;7.43;;;;;;;2.12;67.42;98326.91;1664899;84;21226;-88
2021/01/26 06:08:53;;;;;;;6.73;5.27;;;;;;;2.12;67.56;98327.41;1698939;82;21226;-88
2021/01/26 06:11:30;;;;;;;6.10;5.33;;;;;;;2.14;67.27;98329.36;1681103;83;21216;-85
2021/01/26 06:14:12;;;;;;;9.10;5.77;;;;;;;2.14;67.37;98343.30;1682742;84;21458;-89
2021/01/26 06:16:41;;;;;;;6.47;5.63;;;;;;;2.17;67.26;98341.30;1683440;84;21233;-88
2021/01/26 06:19:14;;;;;;;6.03;5.43;;;;;;;2.15;67.12;98358.59;1678466;84;21827;-85
2021/01/26 06:21:49;;;;;;;6.20;5.60;;;;;;;2.17;66.82;98334.73;1682769;85;21309;-91
2021/01/26 06:24:23;;;;;;;8.00;5.30;;;;;;;1.91;66.55;98309.77;1671820;84;21159;-89
2021/01/26 06:27:13;;;;;;;7.67;5.80;;;;;;;2.20;66.61;98361.98;1680714;84;21241;-88
2021/01/26 06:30:16;;;;;;;4.97;4.47;;;;;;;2.20;66.78;98360.67;1678377;84;21232;-88
2021/01/26 06:32:58;;;;;;;6.33;5.57;;;;;;;2.19;66.71;98362.48;1685316;84;21208;-91
2021/01/26 06:35:35;;;;;;;6.30;5.17;;;;;;;1.96;66.75;98340.27;1689028;84;21936;-88
2021/01/26 06:38:26;;;;;;;5.80;5.23;;;;;;;2.19;67.19;98375.63;1650549;85;21224;-85
2021/01/26 06:41:07;;;;;;;5.27;4.40;;;;;;;2.23;67.07;98387.91;1685810;84;21601;-87
2021/01/26 06:43:56;;;;;;;6.83;5.53;;;;;;;2.22;66.67;98398.09;1676057;84;21192;-85
2021/01/26 06:46:52;;;;;;;5.23;4.63;;;;;;;2.22;66.37;98394.16;1675295;83;21133;-88
2021/01/26 06:50:19;;;;;;;6.12;4.47;;;;;;;2.26;66.49;98407.24;1655632;85;21199;-91
2021/01/26 06:53:32;;;;;;;6.83;5.13;;;;;;;2.23;66.66;98408.44;1667701;84;21234;-89
2021/01/26 06:56:21;;;;;;;5.73;4.40;;;;;;;2.25;66.80;98411.70;1661489;84;21174;-91
2021/01/26 06:59:05;;;;;;;6.30;5.50;;;;;;;2.23;66.62;98433.92;1669177;84;21667;-91
2021/01/26 07:02:08;;;;;;;5.77;4.87;;;;;;;2.28;66.57;98440.73;1670753;83;21297;-88
2021/01/26 07:04:58;;;;;;;5.73;4.60;;;;;;;2.26;66.29;98443.57;1728485;81;21641;-87
2021/01/26 07:08:08;;;;;;;5.57;4.43;;;;;;;2.31;66.40;98450.91;1724807;81;21172;-88
2021/01/26 07:11:06;;;;;;;6.27;4.87;;;;;;;2.30;66.32;98445.34;1732580;81;21231;-89
2021/01/26 07:14:04;;;;;;;5.43;4.80;;;;;;;2.28;66.58;98438.11;1732108;82;21239;-91
2021/01/26 07:16:54;;;;;;;5.80;5.17;;;;;;;2.28;66.96;98454.72;1707017;81;22409;-87
2021/01/26 07:20:04;;;;;;;5.17;4.67;;;;;;;2.30;66.74;98476.89;1735674;81;21194;-90
2021/01/26 07:23:04;;;;;;;7.23;4.57;;;;;;;2.26;67.32;98468.55;1727045;80;21129;-89
2021/01/26 07:26:16;;;;;;;5.77;4.70;;;;;;;2.28;67.12;98468.34;1686840;83;21180;-87
2021/01/26 07:29:19;;;;;;;5.33;4.77;;;;;;;2.29;67.31;98451.59;1633683;84;21455;-87
2021/01/26 07:31:56;;;;;;;6.93;4.70;;;;;;;2.27;67.41;98478.56;1660275;84;21175;-85
2021/01/26 07:34:34;;;;;;;5.37;4.37;;;;;;;2.28;67.44;98483.64;1682229;83;21597;-89
2021/01/26 07:37:11;;;;;;;6.00;4.20;;;;;;;2.30;67.12;98490.84;1669115;83;21184;-89
2021/01/26 07:39:52;;;;;;;4.90;4.40;;;;;;;2.28;66.82;98493.31;1709819;81;21161;-87
2021/01/26 07:42:25;;;;;;;6.00;4.53;;;;;;;2.31;66.48;98490.34;1685658;83;21351;-89
2021/01/26 07:45:10;;;;;;;4.80;3.87;;;;;;;2.07;66.12;98456.75;1678474;83;21205;-90
2021/01/26 07:47:46;;;;;;;4.23;3.73;;;;;;;2.34;65.85;98507.08;1673358;84;21366;-90
2021/01/26 07:50:27;;;;;;;3.27;3.00;;;;;;;2.34;65.72;98511.83;1677910;84;21681;-91
2021/01/26 07:52:58;;;;;;;4.70;3.70;;;;;;;2.33;65.90;98502.80;1670332;84;21399;-88
2021/01/26 07:55:38;;;;;;;4.10;3.17;;;;;;;2.39;65.63;98520.98;1692882;82;21651;-91
2021/01/26 07:58:11;;;;;;;4.13;3.73;;;;;;;2.41;65.50;98514.58;1702110;83;21280;-87
2021/01/26 08:00:46;;;;;;;3.43;3.10;;;;;;;2.42;65.32;98522.77;1658342;83;21175;-90
2021/01/26 08:03:14;;;;;;;3.83;3.53;;;;;;;2.43;65.58;98525.72;1675254;84;21229;-89
2021/01/26 08:05:46;;;;;;;5.00;3.90;;;;;;;2.46;65.09;98535.86;1682175;83;21216;-89
2021/01/26 08:08:31;;;;;;;3.77;3.47;;;;;;;2.44;65.50;98528.66;1682289;83;21191;-90
2021/01/26 08:11:20;;;;;;;4.42;2.87;;;;;;;2.46;65.88;98539.00;1695939;81;21215;-87
2021/01/26 08:13:52;;;;;;;3.20;2.63;;;;;;;2.47;65.75;98540.14;1719024;81;21165;-89
2021/01/26 08:16:29;;;;;;;3.43;2.73;;;;;;;2.46;65.38;98547.70;1716596;81;21195;-89
2021/01/26 08:19:00;;;;;;;3.10;2.80;;;;;;;2.48;65.38;98544.89;1692658;83;21163;-87
2021/01/26 08:21:43;;;;;;;2.90;2.60;;;;;;;2.49;65.97;98553.92;1692503;83;21219;-88
2021/01/26 08:24:26;;;;;;;3.67;3.27;;;;;;;2.44;65.21;98544.94;1651833;85;21114;-89
2021/01/26 08:27:17;;;;;;;2.93;2.70;;;;;;;2.48;65.58;98568.05;1701381;83;21204;-88
2021/01/26 08:29:49;;;;;;;2.70;2.50;;;;;;;2.47;65.61;98557.73;1685617;84;21206;-89
2021/01/26 08:32:30;;;;;;;3.60;2.57;;;;;;;2.47;65.06;98570.89;1689322;82;21188;-92
2021/01/26 08:35:23;;;;;;;4.20;2.20;;;;;;;2.47;64.93;98577.47;1682856;84;21082;-84
2021/01/26 08:37:54;;;;;;;2.57;2.37;;;;;;;2.46;65.10;98588.46;1690754;81;21266;-88
2021/01/26 08:40:30;;;;;;;3.57;2.27;;;;;;;2.49;64.90;98605.20;1694727;84;21857;-87
2021/01/26 08:43:07;;;;;;;4.23;3.13;;;;;;;2.52;64.91;98602.70;1685352;84;21526;-90
2021/01/26 08:45:41;;;;;;;6.00;4.57;;;;;;;2.52;64.84;98607.97;1683198;82;21153;-91
2021/01/26 08:48:22;;;;;;;3.70;3.30;;;;;;;2.54;64.93;98608.60;1690722;83;21202;-90
2021/01/26 08:51:12;;;;;;;3.67;2.43;;;;;;;2.52;65.12;98623.27;1676074;83;21197;-90
2021/01/26 08:53:39;;;;;;;2.57;2.43;;;;;;;2.52;64.62;98621.12;1685615;83;21210;-90
2021/01/26 08:56:26;;;;;;;2.77;2.20;;;;;;;2.52;64.31;98627.22;1695144;82;21181;-90
2021/01/26 08:58:56;;;;;;;4.20;2.60;;;;;;;2.50;64.17;98609.45;1681139;83;21169;-90
2021/01/26 09:01:40;;;;;;;4.20;2.33;;;;;;;2.48;64.25;98625.91;1692730;83;21289;-91
2021/01/26 09:04:18;;;;;;;2.70;2.50;;;;;;;2.49;63.67;98635.96;1679066;85;21218;-88
2021/01/26 09:06:48;;;;;;;1.77;1.57;;;;;;;2.50;63.78;98617.34;1671908;85;21510;-88
2021/01/26 09:09:32;;;;;;;2.50;1.83;;;;;;;2.21;63.28;98580.49;1674405;84;21327;-89
2021/01/26 09:12:25;;;;;;;1.63;1.50;;;;;;;2.49;62.86;98622.30;1646641;84;21177;-91
2021/01/26 09:15:02;;;;;;;1.33;1.20;;;;;;;2.52;63.15;98629.84;1739298;81;21202;-90
2021/01/26 09:17:35;;;;;;;1.43;1.33;;;;;;;2.49;62.58;98624.13;1730285;82;21395;-90
2021/01/26 09:20:22;;;;;;;2.07;1.67;;;;;;;2.55;62.76;98661.54;1807078;77;22697;-88
2021/01/26 09:22:53;;;;;;;2.40;1.50;;;;;;;2.53;62.71;98660.91;1681463;83;21117;-90
2021/01/26 09:25:26;;;;;;;1.27;1.10;;;;;;;2.55;62.39;98671.25;1647192;84;21212;-89
2021/01/26 09:28:01;;;;;;;1.50;1.40;;;;;;;2.58;62.44;98680.09;1709615;82;21732;-91
2021/01/26 09:30:30;;;;;;;2.17;1.30;;;;;;;2.55;62.00;98665.99;1724716;82;21176;-88
2021/01/26 09:33:23;;;;;;;1.50;1.40;;;;;;;2.53;62.38;98685.39;1724620;82;21189;-91
2021/01/26 09:36:13;;;;;;;2.07;1.90;;;;;;;2.53;62.61;98701.17;1673054;85;21365;-92
2021/01/26 09:38:57;;;;;;;1.67;1.57;;;;;;;2.51;63.06;98683.44;1683705;82;21184;-93
2021/01/26 09:41:45;;;;;;;1.27;1.17;;;;;;;2.55;62.86;98689.66;1718428;82;21895;-92
2021/01/26 09:44:19;;;;;;;1.93;1.20;;;;;;;2.50;62.51;98700.19;1709698;82;21717;-90
2021/01/26 09:46:51;;;;;;;2.55;1.82;;;;;;;2.51;62.54;98702.34;1693898;84;21789;-89
2021/01/26 09:49:30;;;;;;;3.93;1.80;;;;;;;2.53;62.43;98706.94;1696230;83;21171;-89
2021/01/26 09:52:10;;;;;;;5.17;1.67;;;;;;;2.52;62.53;98711.38;1676484;83;21219;-90
2021/01/26 09:54:42;;;;;;;1.87;1.50;;;;;;;2.52;62.55;98694.77;1696067;83;21801;-90
2021/01/26 09:57:16;;;;;;;2.07;1.87;;;;;;;2.47;62.49;98672.14;1662358;83;21651;-89
2021/01/26 09:59:45;;;;;;;1.40;1.30;;;;;;;2.46;62.60;98710.75;1696020;83;21333;-91
2021/01/26 10:02:14;;;;;;;2.50;1.90;;;;;;;2.48;62.98;98719.28;1698516;84;21533;-92
2021/01/26 10:04:48;;;;;;;2.27;2.07;;;;;;;2.47;62.98;98705.83;1678171;84;21317;-89
2021/01/26 10:07:25;;;;;;;5.30;1.60;;;;;;;2.49;62.90;98722.25;1702872;81;21330;-88
2021/01/26 10:10:15;;;;;;;2.73;1.90;;;;;;;2.50;62.84;98713.34;1707785;83;21180;-90
2021/01/26 10:12:45;;;;;;;2.00;1.90;;;;;;;2.49;62.80;98719.62;1681771;83;21108;-87
2021/01/26 10:15:40;;;;;;;6.87;2.37;;;;;;;2.51;63.06;98720.77;1683602;83;22100;-91
2021/01/26 10:18:27;;;;;;;3.70;2.50;;;;;;;2.50;63.33;98740.15;1674703;84;21184;-93
2021/01/26 10:21:06;;;;;;;3.00;2.10;;;;;;;2.52;63.51;98731.59;1626785;87;21226;-89
2021/01/26 10:23:39;;;;;;;4.83;2.37;;;;;;;2.52;63.18;98714.48;1630913;87;21086;-91
2021/01/26 10:26:25;;;;;;;2.10;2.00;;;;;;;2.52;62.88;98739.48;1635694;85;21345;-93
2021/01/26 10:28:57;;;;;;;2.55;2.35;;;;;;;2.50;63.21;98729.63;1650986;86;21669;-91
2021/01/26 10:31:26;;;;;;;1.60;1.50;;;;;;;2.54;63.04;98726.97;1651978;86;21207;-91
2021/01/26 10:33:53;;;;;;;3.10;2.30;;;;;;;2.47;62.97;98732.62;1608094;87;21140;-93
2021/01/26 10:38:31;;;;;;;2.30;2.10;;;;;;;2.54;62.93;98732.22;1906282;74;22756;-89
2021/01/26 10:41:11;;;;;;;3.07;2.77;;;;;;;2.52;63.09;98744.27;1852375;75;21156;-90
2021/01/26 10:43:40;;;;;;;2.17;1.97;;;;;;;2.52;63.10;98757.41;1837466;75;21203;-89
2021/01/26 10:46:13;;;;;;;2.53;2.33;;;;;;;2.53;62.98;98766.11;1821800;75;21282;-89
2021/01/26 10:48:47;;;;;;;4.40;2.63;;;;;;;2.53;63.26;98767.43;1805919;77;21301;-89
2021/01/26 10:51:20;;;;;;;2.27;2.00;;;;;;;2.53;63.15;98777.45;1822493;77;21172;-90
2021/01/26 10:53:50;;;;;;;2.30;2.10;;;;;;;2.53;62.96;98781.39;1826278;77;21135;-91
2021/01/26 10:56:17;;;;;;;2.63;2.40;;;;;;;2.59;62.72;98789.08;1824663;77;21104;-87
2021/01/26 10:58:46;;;;;;;3.90;1.97;;;;;;;2.55;62.90;98779.09;1830485;77;21333;-93
2021/01/26 11:01:20;;;;;;;3.10;2.80;;;;;;;2.57;62.94;98791.58;1751940;80;21104;-93
2021/01/26 11:03:52;;;;;;;3.60;3.30;;;;;;;2.57;63.04;98783.69;1750732;80;21244;-92
2021/01/26 11:06:23;;;;;;;4.40;2.43;;;;;;;2.60;62.90;98795.99;1729846;81;21203;-92
2021/01/26 11:08:53;;;;;;;3.07;2.47;;;;;;;2.61;62.84;98786.28;1724547;82;21203;-91
2021/01/26 11:11:29;;;;;;;4.70;2.50;;;;;;;2.67;63.09;98795.59;1733806;80;21170;-92
2021/01/26 11:14:13;;;;;;;7.63;2.40;;;;;;;2.63;62.23;98786.41;1733313;80;21108;-91
2021/01/26 11:16:44;;;;;;;2.07;1.97;;;;;;;2.64;62.45;98798.59;1730162;80;21289;-94
2021/01/26 11:19:15;;;;;;;2.60;2.40;;;;;;;2.62;62.02;98805.84;1741217;81;21175;-92
2021/01/26 11:21:43;;;;;;;2.70;2.50;;;;;;;2.67;62.17;98811.87;1730861;81;21606;-93
2021/01/26 11:24:11;;;;;;;2.80;2.37;;;;;;;2.42;62.10;98771.78;1754781;81;21593;-93
2021/01/26 11:26:39;;;;;;;3.67;2.10;;;;;;;2.74;62.06;98814.14;1747772;81;21171;-94
2021/01/26 11:29:06;;;;;;;2.77;1.87;;;;;;;2.75;61.95;98825.47;1758776;80;21108;-90
2021/01/26 11:31:57;;;;;;;2.97;1.87;;;;;;;2.77;61.82;98834.85;1749000;79;21301;-92
2021/01/26 11:34:25;;;;;;;4.00;2.57;;;;;;;2.76;61.89;98827.13;1714812;80;21163;-90
2021/01/26 11:36:54;;;;;;;2.07;1.97;;;;;;;2.50;62.09;98788.30;1732474;80;21658;-93
2021/01/26 11:39:26;;;;;;;2.67;2.03;;;;;;;2.76;61.81;98823.98;1746452;80;21272;-91
2021/01/26 11:41:56;;;;;;;2.17;1.93;;;;;;;2.76;61.46;98831.08;1750597;81;21301;-88
2021/01/26 11:44:24;;;;;;;2.67;2.47;;;;;;;2.78;61.42;98840.92;1734675;80;21134;-93
2021/01/26 11:46:54;;;;;;;3.00;2.73;;;;;;;2.80;61.26;98827.09;1714137;82;21176;-92
2021/01/26 11:49:21;;;;;;;2.63;2.03;;;;;;;2.81;60.89;98830.06;1689520;82;21256;-90
2021/01/26 11:51:56;;;;;;;1.93;1.83;;;;;;;2.84;60.97;98840.22;1696890;83;21188;-90
2021/01/26 11:55:16;;;;;;;;;;;;;;;;;;;;;
2021/01/26 11:57:54;;;;;;;2.80;2.20;;;;;;;2.88;60.87;98849.39;1815056;77;27940;-93
2021/01/26 12:00:34;;;;;;;2.42;1.75;;;;;;;2.89;60.85;98851.05;1781661;76;21185;-95
2021/01/26 12:06:07;;;;;;;1.73;1.63;;;;;;;2.89;60.29;98861.57;1788458;78;21769;-92
2021/01/26 12:09:07;;;;;;;2.43;1.83;;;;;;;2.94;60.59;98861.88;1815375;77;24182;-89
2021/01/26 12:11:40;;;;;;;2.90;2.70;;;;;;;2.88;60.23;98867.34;1758973;80;21132;-89
2021/01/26 12:14:08;;;;;;;2.30;2.00;;;;;;;2.92;60.73;98879.16;1706959;83;21147;-93
2021/01/26 12:16:37;;;;;;;2.50;2.30;;;;;;;2.96;60.63;98878.31;1735306;81;21217;-90
2021/01/26 12:19:05;;;;;;;2.53;1.70;;;;;;;2.97;60.21;98878.61;1723648;81;21190;-92
2021/01/26 12:21:35;;;;;;;2.67;1.90;;;;;;;3.00;59.96;98894.58;1718111;81;21315;-89
2021/01/26 12:24:05;;;;;;;2.20;2.07;;;;;;;2.98;60.25;98886.03;1720774;82;21148;-91
2021/01/26 12:26:37;;;;;;;6.07;3.07;;;;;;;3.00;60.42;98901.16;1698018;83;21181;-88
2021/01/26 12:29:14;;;;;;;6.57;2.80;;;;;;;2.99;60.21;98903.45;1729127;81;21169;-93
2021/01/26 12:31:47;;;;;;;2.70;2.40;;;;;;;2.99;60.45;98906.09;1671270;84;21832;-92
2021/01/26 12:34:23;;;;;;;2.30;1.90;;;;;;;3.00;60.22;98903.78;1676372;84;21166;-89
2021/01/26 12:36:56;;;;;;;2.23;2.03;;;;;;;3.00;60.28;98909.05;1650892;85;21305;-87
2021/01/26 12:39:25;;;;;;;2.67;2.47;;;;;;;3.04;60.12;98908.52;1669717;84;21206;-90
2021/01/26 12:42:04;;;;;;;;;;;;;;;;;;;;;
2021/01/26 12:44:37;;;;;;;4.90;2.47;;;;;;;3.08;60.29;98927.42;1813180;77;22841;-90
2021/01/26 12:47:24;;;;;;;;;;;;;;;;;;;;;